sensor_id;sensor_type;location;lat;lon;timestamp;temperature;humidity
15105;DHT22;7653;48.994;9.212;2023-02-17T00:02:00;7.70;49.50
15105;DHT22;7653;48.994;9.212;2023-02-17T00:04:30;7.70;49.50
15105;DHT22;7653;48.994;9.212;2023-02-17T00:06:55;7.70;49.50
15105;DHT22;7653;48.994;9.212;2023-02-17T00:09:22;7.60;49.30
15105;DHT22;7653;48.994;9.212;2023-02-17T00:11:47;7.60;50.90
15105;DHT22;7653;48.994;9.212;2023-02-17T00:14:14;7.70;50.20
15105;DHT22;7653;48.994;9.212;2023-02-17T00:16:39;7.80;49.50
15105;DHT22;7653;48.994;9.212;2023-02-17T00:19:05;7.90;49.60
15105;DHT22;7653;48.994;9.212;2023-02-17T00:21:49;7.90;49.60
15105;DHT22;7653;48.994;9.212;2023-02-17T00:24:15;7.90;48.80
15105;DHT22;7653;48.994;9.212;2023-02-17T00:26:40;7.90;47.90
15105;DHT22;7653;48.994;9.212;2023-02-17T00:29:06;8.10;46.10
15105;DHT22;7653;48.994;9.212;2023-02-17T00:31:32;8.10;45.20
15105;DHT22;7653;48.994;9.212;2023-02-17T00:33:58;8.20;45.20
15105;DHT22;7653;48.994;9.212;2023-02-17T00:36:24;8.30;43.80
15105;DHT22;7653;48.994;9.212;2023-02-17T00:38:53;8.30;44.40
15105;DHT22;7653;48.994;9.212;2023-02-17T00:41:18;8.40;43.40
15105;DHT22;7653;48.994;9.212;2023-02-17T00:43:44;8.50;41.80
15105;DHT22;7653;48.994;9.212;2023-02-17T00:46:10;8.60;41.20
15105;DHT22;7653;48.994;9.212;2023-02-17T00:48:36;8.60;40.50
15105;DHT22;7653;48.994;9.212;2023-02-17T00:51:01;8.60;40.40
15105;DHT22;7653;48.994;9.212;2023-02-17T00:53:27;8.70;40.60
15105;DHT22;7653;48.994;9.212;2023-02-17T00:55:53;8.70;40.60
15105;DHT22;7653;48.994;9.212;2023-02-17T00:58:19;8.80;40.20
15105;DHT22;7653;48.994;9.212;2023-02-17T01:00:44;8.70;40.50
15105;DHT22;7653;48.994;9.212;2023-02-17T01:03:10;8.80;40.60
15105;DHT22;7653;48.994;9.212;2023-02-17T01:05:42;8.80;40.60
15105;DHT22;7653;48.994;9.212;2023-02-17T01:08:09;8.80;40.60
15105;DHT22;7653;48.994;9.212;2023-02-17T01:10:39;8.80;40.60
15105;DHT22;7653;48.994;9.212;2023-02-17T01:13:06;8.80;40.60
15105;DHT22;7653;48.994;9.212;2023-02-17T01:15:38;8.80;40.60
15105;DHT22;7653;48.994;9.212;2023-02-17T01:18:04;8.70;40.90
15105;DHT22;7653;48.994;9.212;2023-02-17T01:20:32;8.70;40.50
15105;DHT22;7653;48.994;9.212;2023-02-17T01:22:59;8.70;40.50
15105;DHT22;7653;48.994;9.212;2023-02-17T01:25:24;8.70;40.60
15105;DHT22;7653;48.994;9.212;2023-02-17T01:27:50;8.70;40.50
15105;DHT22;7653;48.994;9.212;2023-02-17T01:30:16;8.60;40.50
15105;DHT22;7653;48.994;9.212;2023-02-17T01:32:41;8.70;40.40
15105;DHT22;7653;48.994;9.212;2023-02-17T01:35:07;8.60;40.40
15105;DHT22;7653;48.994;9.212;2023-02-17T01:37:33;8.70;40.50
15105;DHT22;7653;48.994;9.212;2023-02-17T01:39:58;8.60;40.40
15105;DHT22;7653;48.994;9.212;2023-02-17T01:42:24;8.70;40.50
15105;DHT22;7653;48.994;9.212;2023-02-17T01:45:29;8.70;40.50
15105;DHT22;7653;48.994;9.212;2023-02-17T01:48:01;8.70;39.40
15105;DHT22;7653;48.994;9.212;2023-02-17T01:50:35;8.80;38.20
15105;DHT22;7653;48.994;9.212;2023-02-17T01:53:02;8.90;38.70
15105;DHT22;7653;48.994;9.212;2023-02-17T01:55:29;8.80;38.80
15105;DHT22;7653;48.994;9.212;2023-02-17T01:57:56;8.70;39.90
15105;DHT22;7653;48.994;9.212;2023-02-17T02:00:25;8.60;40.40
15105;DHT22;7653;48.994;9.212;2023-02-17T02:02:52;8.50;42.70
15105;DHT22;7653;48.994;9.212;2023-02-17T02:05:19;8.30;44.60
15105;DHT22;7653;48.994;9.212;2023-02-17T02:07:46;8.20;46.90
15105;DHT22;7653;48.994;9.212;2023-02-17T02:10:13;8.10;48.40
15105;DHT22;7653;48.994;9.212;2023-02-17T02:12:40;8.20;47.10
15105;DHT22;7653;48.994;9.212;2023-02-17T02:15:12;8.10;47.60
15105;DHT22;7653;48.994;9.212;2023-02-17T02:33:46;8.20;49.00
15105;DHT22;7653;48.994;9.212;2023-02-17T02:36:04;8.30;47.00
15105;DHT22;7653;48.994;9.212;2023-02-17T02:38:39;8.40;45.60
15105;DHT22;7653;48.994;9.212;2023-02-17T02:43:36;8.50;44.20
15105;DHT22;7653;48.994;9.212;2023-02-17T02:46:02;8.50;44.60
15105;DHT22;7653;48.994;9.212;2023-02-17T02:48:28;8.60;44.10
15105;DHT22;7653;48.994;9.212;2023-02-17T03:03:17;8.20;47.10
15105;DHT22;7653;48.994;9.212;2023-02-17T03:05:54;8.10;46.90
15105;DHT22;7653;48.994;9.212;2023-02-17T03:10:51;8.00;48.70
15105;DHT22;7653;48.994;9.212;2023-02-17T03:13:19;8.00;48.90
15105;DHT22;7653;48.994;9.212;2023-02-17T03:15:45;8.00;48.90
15105;DHT22;7653;48.994;9.212;2023-02-17T03:18:11;8.10;48.20
15105;DHT22;7653;48.994;9.212;2023-02-17T03:20:41;7.80;50.30
15105;DHT22;7653;48.994;9.212;2023-02-17T03:23:08;7.90;49.60
15105;DHT22;7653;48.994;9.212;2023-02-17T03:25:34;7.90;48.90
15105;DHT22;7653;48.994;9.212;2023-02-17T03:28:00;8.00;48.50
15105;DHT22;7653;48.994;9.212;2023-02-17T03:30:26;8.20;47.80
15105;DHT22;7653;48.994;9.212;2023-02-17T03:32:52;8.30;45.50
15105;DHT22;7653;48.994;9.212;2023-02-17T03:35:18;8.40;44.30
15105;DHT22;7653;48.994;9.212;2023-02-17T03:37:44;8.30;46.40
15105;DHT22;7653;48.994;9.212;2023-02-17T03:40:10;8.20;44.70
15105;DHT22;7653;48.994;9.212;2023-02-17T03:42:36;8.30;45.10
15105;DHT22;7653;48.994;9.212;2023-02-17T03:45:01;8.40;44.70
15105;DHT22;7653;48.994;9.212;2023-02-17T03:47:27;8.40;41.90
15105;DHT22;7653;48.994;9.212;2023-02-17T03:49:53;8.40;44.00
15105;DHT22;7653;48.994;9.212;2023-02-17T03:52:18;8.30;43.50
15105;DHT22;7653;48.994;9.212;2023-02-17T03:54:44;8.40;41.70
15105;DHT22;7653;48.994;9.212;2023-02-17T03:57:10;8.40;43.00
15105;DHT22;7653;48.994;9.212;2023-02-17T03:59:36;8.40;42.40
15105;DHT22;7653;48.994;9.212;2023-02-17T04:02:02;8.50;40.30
15105;DHT22;7653;48.994;9.212;2023-02-17T04:04:28;8.50;40.40
15105;DHT22;7653;48.994;9.212;2023-02-17T04:06:54;8.70;40.70
15105;DHT22;7653;48.994;9.212;2023-02-17T04:09:19;8.80;39.90
15105;DHT22;7653;48.994;9.212;2023-02-17T04:11:45;8.80;39.70
15105;DHT22;7653;48.994;9.212;2023-02-17T04:14:11;8.80;37.70
15105;DHT22;7653;48.994;9.212;2023-02-17T04:16:36;9.00;36.50
15105;DHT22;7653;48.994;9.212;2023-02-17T04:19:08;9.20;34.80
15105;DHT22;7653;48.994;9.212;2023-02-17T04:21:34;9.20;35.60
15105;DHT22;7653;48.994;9.212;2023-02-17T04:24:00;9.20;35.50
15105;DHT22;7653;48.994;9.212;2023-02-17T04:26:26;9.20;35.00
15105;DHT22;7653;48.994;9.212;2023-02-17T04:28:52;9.30;34.40
15105;DHT22;7653;48.994;9.212;2023-02-17T04:31:18;9.40;34.10
15105;DHT22;7653;48.994;9.212;2023-02-17T04:33:44;9.40;35.10
15105;DHT22;7653;48.994;9.212;2023-02-17T04:36:09;9.20;36.70
15105;DHT22;7653;48.994;9.212;2023-02-17T04:38:36;9.20;35.10
15105;DHT22;7653;48.994;9.212;2023-02-17T04:41:03;9.30;34.20
15105;DHT22;7653;48.994;9.212;2023-02-17T04:43:29;9.40;34.00
15105;DHT22;7653;48.994;9.212;2023-02-17T04:45:55;9.40;35.00
15105;DHT22;7653;48.994;9.212;2023-02-17T04:48:21;9.20;36.00
15105;DHT22;7653;48.994;9.212;2023-02-17T04:50:47;9.20;35.90
15105;DHT22;7653;48.994;9.212;2023-02-17T04:53:13;9.20;36.00
15105;DHT22;7653;48.994;9.212;2023-02-17T04:55:39;9.20;35.90
15105;DHT22;7653;48.994;9.212;2023-02-17T04:58:06;9.20;36.80
15105;DHT22;7653;48.994;9.212;2023-02-17T05:00:31;9.10;36.50
15105;DHT22;7653;48.994;9.212;2023-02-17T05:02:57;9.10;36.40
15105;DHT22;7653;48.994;9.212;2023-02-17T05:05:23;9.10;36.70
15105;DHT22;7653;48.994;9.212;2023-02-17T05:07:48;9.10;37.00
15105;DHT22;7653;48.994;9.212;2023-02-17T05:10:15;9.10;36.80
15105;DHT22;7653;48.994;9.212;2023-02-17T05:12:41;9.10;37.20
15105;DHT22;7653;48.994;9.212;2023-02-17T05:15:07;9.10;36.80
15105;DHT22;7653;48.994;9.212;2023-02-17T05:17:34;9.10;37.40
15105;DHT22;7653;48.994;9.212;2023-02-17T05:20:00;9.10;36.90
15105;DHT22;7653;48.994;9.212;2023-02-17T05:22:26;9.10;37.40
15105;DHT22;7653;48.994;9.212;2023-02-17T05:24:52;9.10;37.10
15105;DHT22;7653;48.994;9.212;2023-02-17T05:27:18;9.20;37.30
15105;DHT22;7653;48.994;9.212;2023-02-17T05:29:44;9.10;37.50
15105;DHT22;7653;48.994;9.212;2023-02-17T05:32:10;9.10;37.50
15105;DHT22;7653;48.994;9.212;2023-02-17T05:34:36;9.10;37.60
15105;DHT22;7653;48.994;9.212;2023-02-17T05:37:01;9.10;37.50
15105;DHT22;7653;48.994;9.212;2023-02-17T05:39:27;9.10;37.80
15105;DHT22;7653;48.994;9.212;2023-02-17T05:41:53;9.10;38.20
15105;DHT22;7653;48.994;9.212;2023-02-17T05:44:18;9.10;38.90
15105;DHT22;7653;48.994;9.212;2023-02-17T05:46:44;9.10;38.10
15105;DHT22;7653;48.994;9.212;2023-02-17T05:49:10;9.10;38.00
15105;DHT22;7653;48.994;9.212;2023-02-17T05:51:35;9.20;38.00
15105;DHT22;7653;48.994;9.212;2023-02-17T05:54:01;9.10;38.30
15105;DHT22;7653;48.994;9.212;2023-02-17T05:56:27;9.20;38.50
15105;DHT22;7653;48.994;9.212;2023-02-17T05:58:53;9.20;38.50
15105;DHT22;7653;48.994;9.212;2023-02-17T06:01:18;9.20;39.20
15105;DHT22;7653;48.994;9.212;2023-02-17T06:03:44;9.20;39.00
15105;DHT22;7653;48.994;9.212;2023-02-17T06:06:10;9.20;39.60
15105;DHT22;7653;48.994;9.212;2023-02-17T06:08:35;9.20;39.30
15105;DHT22;7653;48.994;9.212;2023-02-17T06:11:01;9.30;39.70
15105;DHT22;7653;48.994;9.212;2023-02-17T06:13:27;9.30;40.70
15105;DHT22;7653;48.994;9.212;2023-02-17T06:15:53;9.30;41.00
15105;DHT22;7653;48.994;9.212;2023-02-17T06:18:18;9.40;41.10
15105;DHT22;7653;48.994;9.212;2023-02-17T06:20:44;9.50;40.10
15105;DHT22;7653;48.994;9.212;2023-02-17T06:23:09;9.50;40.00
15105;DHT22;7653;48.994;9.212;2023-02-17T06:25:36;9.50;40.30
15105;DHT22;7653;48.994;9.212;2023-02-17T06:28:02;9.40;41.10
15105;DHT22;7653;48.994;9.212;2023-02-17T06:30:28;9.40;41.20
15105;DHT22;7653;48.994;9.212;2023-02-17T06:32:54;9.40;42.20
15105;DHT22;7653;48.994;9.212;2023-02-17T06:35:19;9.50;42.30
15105;DHT22;7653;48.994;9.212;2023-02-17T06:37:45;9.50;43.40
15105;DHT22;7653;48.994;9.212;2023-02-17T06:40:11;9.60;41.70
15105;DHT22;7653;48.994;9.212;2023-02-17T06:42:37;9.60;41.80
15105;DHT22;7653;48.994;9.212;2023-02-17T06:45:03;9.40;43.30
15105;DHT22;7653;48.994;9.212;2023-02-17T06:47:31;9.50;43.10
15105;DHT22;7653;48.994;9.212;2023-02-17T06:49:57;9.50;42.90
15105;DHT22;7653;48.994;9.212;2023-02-17T06:52:22;9.70;42.20
15105;DHT22;7653;48.994;9.212;2023-02-17T06:54:48;9.70;42.50
15105;DHT22;7653;48.994;9.212;2023-02-17T06:57:15;9.60;43.20
15105;DHT22;7653;48.994;9.212;2023-02-17T06:59:40;9.70;41.30
15105;DHT22;7653;48.994;9.212;2023-02-17T07:02:08;9.70;41.30
15105;DHT22;7653;48.994;9.212;2023-02-17T07:04:37;9.50;42.90
15105;DHT22;7653;48.994;9.212;2023-02-17T07:07:03;9.60;42.90
15105;DHT22;7653;48.994;9.212;2023-02-17T07:09:28;9.60;42.80
15105;DHT22;7653;48.994;9.212;2023-02-17T07:11:54;9.70;42.70
15105;DHT22;7653;48.994;9.212;2023-02-17T07:14:19;9.90;42.50
15105;DHT22;7653;48.994;9.212;2023-02-17T07:16:45;10.00;43.80
15105;DHT22;7653;48.994;9.212;2023-02-17T07:19:11;10.00;44.00
15105;DHT22;7653;48.994;9.212;2023-02-17T07:21:37;10.20;44.40
15105;DHT22;7653;48.994;9.212;2023-02-17T07:24:02;10.30;44.70
15105;DHT22;7653;48.994;9.212;2023-02-17T07:26:28;10.40;43.60
15105;DHT22;7653;48.994;9.212;2023-02-17T07:28:54;10.40;43.10
15105;DHT22;7653;48.994;9.212;2023-02-17T07:31:19;10.30;43.50
15105;DHT22;7653;48.994;9.212;2023-02-17T07:33:45;10.40;43.30
15105;DHT22;7653;48.994;9.212;2023-02-17T07:36:14;10.20;43.70
15105;DHT22;7653;48.994;9.212;2023-02-17T07:38:41;10.20;43.70
15105;DHT22;7653;48.994;9.212;2023-02-17T07:41:09;10.20;43.80
15105;DHT22;7653;48.994;9.212;2023-02-17T07:43:35;10.20;44.50
15105;DHT22;7653;48.994;9.212;2023-02-17T07:46:01;10.20;45.00
15105;DHT22;7653;48.994;9.212;2023-02-17T07:48:26;10.10;45.20
15105;DHT22;7653;48.994;9.212;2023-02-17T07:50:52;10.10;46.10
15105;DHT22;7653;48.994;9.212;2023-02-17T07:53:18;10.10;45.50
15105;DHT22;7653;48.994;9.212;2023-02-17T07:55:43;10.00;45.20
15105;DHT22;7653;48.994;9.212;2023-02-17T07:58:09;10.10;45.30
15105;DHT22;7653;48.994;9.212;2023-02-17T08:00:35;10.10;44.70
15105;DHT22;7653;48.994;9.212;2023-02-17T08:03:00;10.10;44.50
15105;DHT22;7653;48.994;9.212;2023-02-17T08:05:26;10.30;44.60
15105;DHT22;7653;48.994;9.212;2023-02-17T08:07:52;10.30;44.90
15105;DHT22;7653;48.994;9.212;2023-02-17T08:10:38;10.30;45.00
15105;DHT22;7653;48.994;9.212;2023-02-17T08:13:24;10.40;44.30
15105;DHT22;7653;48.994;9.212;2023-02-17T08:15:50;10.50;43.70
15105;DHT22;7653;48.994;9.212;2023-02-17T08:18:16;10.70;41.80
15105;DHT22;7653;48.994;9.212;2023-02-17T08:20:42;10.60;42.10
15105;DHT22;7653;48.994;9.212;2023-02-17T08:23:07;10.70;43.10
15105;DHT22;7653;48.994;9.212;2023-02-17T08:25:34;10.70;42.30
15105;DHT22;7653;48.994;9.212;2023-02-17T08:28:01;10.90;41.40
15105;DHT22;7653;48.994;9.212;2023-02-17T08:30:27;10.80;41.30
15105;DHT22;7653;48.994;9.212;2023-02-17T08:32:53;10.70;42.10
15105;DHT22;7653;48.994;9.212;2023-02-17T08:35:18;10.50;43.90
15105;DHT22;7653;48.994;9.212;2023-02-17T08:37:47;10.50;43.50
15105;DHT22;7653;48.994;9.212;2023-02-17T08:40:13;10.60;43.70
15105;DHT22;7653;48.994;9.212;2023-02-17T08:42:39;10.60;43.50
15105;DHT22;7653;48.994;9.212;2023-02-17T08:45:05;10.70;43.70
15105;DHT22;7653;48.994;9.212;2023-02-17T08:47:31;10.70;44.00
15105;DHT22;7653;48.994;9.212;2023-02-17T08:49:57;10.70;43.10
15105;DHT22;7653;48.994;9.212;2023-02-17T08:52:24;10.80;43.40
15105;DHT22;7653;48.994;9.212;2023-02-17T08:54:49;10.70;44.20
15105;DHT22;7653;48.994;9.212;2023-02-17T08:57:17;10.80;43.50
15105;DHT22;7653;48.994;9.212;2023-02-17T08:59:44;10.90;42.80
15105;DHT22;7653;48.994;9.212;2023-02-17T09:02:13;10.90;42.30
15105;DHT22;7653;48.994;9.212;2023-02-17T09:04:38;10.90;43.10
15105;DHT22;7653;48.994;9.212;2023-02-17T09:07:08;10.90;42.70
15105;DHT22;7653;48.994;9.212;2023-02-17T09:09:34;10.90;44.60
15105;DHT22;7653;48.994;9.212;2023-02-17T09:12:00;10.80;45.40
15105;DHT22;7653;48.994;9.212;2023-02-17T09:14:26;10.80;46.20
15105;DHT22;7653;48.994;9.212;2023-02-17T09:16:53;10.90;46.60
15105;DHT22;7653;48.994;9.212;2023-02-17T09:19:19;10.80;47.00
15105;DHT22;7653;48.994;9.212;2023-02-17T09:21:45;10.90;48.70
15105;DHT22;7653;48.994;9.212;2023-02-17T09:24:12;10.90;49.20
15105;DHT22;7653;48.994;9.212;2023-02-17T09:26:37;10.90;50.00
15105;DHT22;7653;48.994;9.212;2023-02-17T09:29:03;11.00;49.50
15105;DHT22;7653;48.994;9.212;2023-02-17T09:31:30;11.20;48.70
15105;DHT22;7653;48.994;9.212;2023-02-17T09:33:56;11.20;48.90
15105;DHT22;7653;48.994;9.212;2023-02-17T09:36:24;11.20;48.60
15105;DHT22;7653;48.994;9.212;2023-02-17T09:38:51;11.20;49.10
15105;DHT22;7653;48.994;9.212;2023-02-17T09:41:28;11.10;50.50
15105;DHT22;7653;48.994;9.212;2023-02-17T09:43:56;11.10;51.20
15105;DHT22;7653;48.994;9.212;2023-02-17T09:46:42;11.30;49.40
15105;DHT22;7653;48.994;9.212;2023-02-17T09:49:16;11.20;49.00
15105;DHT22;7653;48.994;9.212;2023-02-17T09:52:13;11.30;48.90
15105;DHT22;7653;48.994;9.212;2023-02-17T09:57:19;11.40;47.10
15105;DHT22;7653;48.994;9.212;2023-02-17T09:59:53;11.40;48.00
15105;DHT22;7653;48.994;9.212;2023-02-17T10:02:27;11.60;47.10
15105;DHT22;7653;48.994;9.212;2023-02-17T10:05:00;11.70;45.30
15105;DHT22;7653;48.994;9.212;2023-02-17T10:07:56;11.80;46.90
15105;DHT22;7653;48.994;9.212;2023-02-17T10:10:26;11.90;46.30
15105;DHT22;7653;48.994;9.212;2023-02-17T10:12:57;12.00;46.30
15105;DHT22;7653;48.994;9.212;2023-02-17T10:15:28;12.10;45.60
15105;DHT22;7653;48.994;9.212;2023-02-17T10:23:21;12.20;46.40
15105;DHT22;7653;48.994;9.212;2023-02-17T10:26:30;12.40;45.30
15105;DHT22;7653;48.994;9.212;2023-02-17T10:29:04;12.30;45.10
15105;DHT22;7653;48.994;9.212;2023-02-17T10:31:36;12.10;52.30
15105;DHT22;7653;48.994;9.212;2023-02-17T10:34:33;12.00;50.50
15105;DHT22;7653;48.994;9.212;2023-02-17T10:37:00;11.90;51.50
15105;DHT22;7653;48.994;9.212;2023-02-17T10:41:58;11.90;52.10
15105;DHT22;7653;48.994;9.212;2023-02-17T10:44:24;11.90;53.40
15105;DHT22;7653;48.994;9.212;2023-02-17T10:46:51;12.00;52.90
15105;DHT22;7653;48.994;9.212;2023-02-17T10:49:32;11.90;54.70
15105;DHT22;7653;48.994;9.212;2023-02-17T10:52:13;11.90;54.00
15105;DHT22;7653;48.994;9.212;2023-02-17T10:57:49;12.10;55.30
15105;DHT22;7653;48.994;9.212;2023-02-17T11:00:18;12.10;58.10
15105;DHT22;7653;48.994;9.212;2023-02-17T11:02:46;12.00;58.20
15105;DHT22;7653;48.994;9.212;2023-02-17T11:05:30;12.00;56.90
15105;DHT22;7653;48.994;9.212;2023-02-17T11:10:28;12.10;57.10
15105;DHT22;7653;48.994;9.212;2023-02-17T11:12:55;12.10;56.70
15105;DHT22;7653;48.994;9.212;2023-02-17T11:15:26;12.20;55.90
15105;DHT22;7653;48.994;9.212;2023-02-17T11:17:52;12.30;55.30
15105;DHT22;7653;48.994;9.212;2023-02-17T11:22:47;12.30;54.80
15105;DHT22;7653;48.994;9.212;2023-02-17T11:25:21;12.40;53.50
15105;DHT22;7653;48.994;9.212;2023-02-17T11:27:52;12.30;55.10
15105;DHT22;7653;48.994;9.212;2023-02-17T11:30:19;12.30;55.40
15105;DHT22;7653;48.994;9.212;2023-02-17T11:32:45;12.30;56.30
15105;DHT22;7653;48.994;9.212;2023-02-17T11:37:48;12.30;58.20
15105;DHT22;7653;48.994;9.212;2023-02-17T11:40:31;12.30;55.10
15105;DHT22;7653;48.994;9.212;2023-02-17T11:43:02;12.50;54.80
15105;DHT22;7653;48.994;9.212;2023-02-17T11:45:47;12.50;54.30
15105;DHT22;7653;48.994;9.212;2023-02-17T11:48:41;12.50;53.30
15105;DHT22;7653;48.994;9.212;2023-02-17T11:51:27;12.60;54.60
15105;DHT22;7653;48.994;9.212;2023-02-17T12:05:57;12.70;52.10
15105;DHT22;7653;48.994;9.212;2023-02-17T12:22:28;12.90;50.20
15105;DHT22;7653;48.994;9.212;2023-02-17T12:38:16;13.20;46.60
15105;DHT22;7653;48.994;9.212;2023-02-17T12:40:46;13.30;47.20
15105;DHT22;7653;48.994;9.212;2023-02-17T12:43:21;13.30;47.20
15105;DHT22;7653;48.994;9.212;2023-02-17T12:45:50;13.40;47.00
15105;DHT22;7653;48.994;9.212;2023-02-17T12:48:50;13.40;45.80
15105;DHT22;7653;48.994;9.212;2023-02-17T12:51:26;13.50;46.40
15105;DHT22;7653;48.994;9.212;2023-02-17T13:02:20;13.60;46.30
15105;DHT22;7653;48.994;9.212;2023-02-17T13:04:52;13.60;46.70
15105;DHT22;7653;48.994;9.212;2023-02-17T13:09:56;13.60;45.50
15105;DHT22;7653;48.994;9.212;2023-02-17T13:17:38;13.60;46.40
15105;DHT22;7653;48.994;9.212;2023-02-17T13:22:41;13.70;45.60
15105;DHT22;7653;48.994;9.212;2023-02-17T13:25:12;13.70;45.60
15105;DHT22;7653;48.994;9.212;2023-02-17T13:27:39;13.60;46.10
15105;DHT22;7653;48.994;9.212;2023-02-17T13:32:46;13.60;46.70
15105;DHT22;7653;48.994;9.212;2023-02-17T13:37:41;13.60;46.80
15105;DHT22;7653;48.994;9.212;2023-02-17T13:45:39;13.80;45.60
15105;DHT22;7653;48.994;9.212;2023-02-17T13:50:45;13.80;46.30
15105;DHT22;7653;48.994;9.212;2023-02-17T13:55:55;13.90;45.60
15105;DHT22;7653;48.994;9.212;2023-02-17T13:58:29;14.00;44.50
15105;DHT22;7653;48.994;9.212;2023-02-17T14:00:57;14.10;44.30
15105;DHT22;7653;48.994;9.212;2023-02-17T14:03:34;14.20;44.40
15105;DHT22;7653;48.994;9.212;2023-02-17T14:06:06;14.20;44.40
15105;DHT22;7653;48.994;9.212;2023-02-17T14:08:39;14.40;44.20
15105;DHT22;7653;48.994;9.212;2023-02-17T14:11:18;14.80;45.00
15105;DHT22;7653;48.994;9.212;2023-02-17T14:13:46;15.70;38.60
15105;DHT22;7653;48.994;9.212;2023-02-17T14:16:35;16.10;36.10
15105;DHT22;7653;48.994;9.212;2023-02-17T14:21:29;16.60;33.70
15105;DHT22;7653;48.994;9.212;2023-02-17T14:23:57;16.50;33.70
15105;DHT22;7653;48.994;9.212;2023-02-17T14:26:30;16.40;33.50
15105;DHT22;7653;48.994;9.212;2023-02-17T14:29:05;16.20;34.10
15105;DHT22;7653;48.994;9.212;2023-02-17T14:34:23;15.30;37.60
15105;DHT22;7653;48.994;9.212;2023-02-17T14:36:50;15.20;38.10
15105;DHT22;7653;48.994;9.212;2023-02-17T14:39:16;15.30;38.10
15105;DHT22;7653;48.994;9.212;2023-02-17T14:41:42;15.50;36.90
15105;DHT22;7653;48.994;9.212;2023-02-17T14:44:08;15.70;35.70
15105;DHT22;7653;48.994;9.212;2023-02-17T14:46:34;15.60;36.80
15105;DHT22;7653;48.994;9.212;2023-02-17T14:49:00;15.80;35.80
15105;DHT22;7653;48.994;9.212;2023-02-17T14:51:32;16.10;36.30
15105;DHT22;7653;48.994;9.212;2023-02-17T14:54:14;16.30;34.60
15105;DHT22;7653;48.994;9.212;2023-02-17T14:56:56;16.10;34.50
15105;DHT22;7653;48.994;9.212;2023-02-17T14:59:24;15.80;35.80
15105;DHT22;7653;48.994;9.212;2023-02-17T15:01:50;15.60;35.60
15105;DHT22;7653;48.994;9.212;2023-02-17T15:04:15;15.60;35.80
15105;DHT22;7653;48.994;9.212;2023-02-17T15:06:47;15.40;36.70
15105;DHT22;7653;48.994;9.212;2023-02-17T15:09:18;15.20;37.30
15105;DHT22;7653;48.994;9.212;2023-02-17T15:11:47;15.10;38.20
15105;DHT22;7653;48.994;9.212;2023-02-17T15:14:19;15.20;38.10
15105;DHT22;7653;48.994;9.212;2023-02-17T15:16:46;15.40;37.80
15105;DHT22;7653;48.994;9.212;2023-02-17T15:19:13;15.50;37.80
15105;DHT22;7653;48.994;9.212;2023-02-17T15:21:46;15.70;37.60
15105;DHT22;7653;48.994;9.212;2023-02-17T15:24:21;15.70;36.60
15105;DHT22;7653;48.994;9.212;2023-02-17T15:26:47;15.80;35.80
15105;DHT22;7653;48.994;9.212;2023-02-17T15:29:17;15.60;36.40
15105;DHT22;7653;48.994;9.212;2023-02-17T15:31:43;15.30;37.60
15105;DHT22;7653;48.994;9.212;2023-02-17T15:34:22;15.30;38.40
15105;DHT22;7653;48.994;9.212;2023-02-17T15:36:48;15.20;38.70
15105;DHT22;7653;48.994;9.212;2023-02-17T15:39:19;15.30;39.10
15105;DHT22;7653;48.994;9.212;2023-02-17T15:41:51;15.10;39.50
15105;DHT22;7653;48.994;9.212;2023-02-17T15:44:21;15.10;39.40
15105;DHT22;7653;48.994;9.212;2023-02-17T15:46:53;15.10;40.20
15105;DHT22;7653;48.994;9.212;2023-02-17T15:49:19;15.10;40.20
15105;DHT22;7653;48.994;9.212;2023-02-17T15:51:45;15.00;41.30
15105;DHT22;7653;48.994;9.212;2023-02-17T15:54:11;14.90;40.90
15105;DHT22;7653;48.994;9.212;2023-02-17T15:56:47;14.90;41.10
15105;DHT22;7653;48.994;9.212;2023-02-17T15:59:20;14.90;41.50
15105;DHT22;7653;48.994;9.212;2023-02-17T16:01:46;14.80;42.50
15105;DHT22;7653;48.994;9.212;2023-02-17T16:04:13;14.60;43.10
15105;DHT22;7653;48.994;9.212;2023-02-17T16:06:39;14.60;43.10
15105;DHT22;7653;48.994;9.212;2023-02-17T16:09:05;14.50;43.80
15105;DHT22;7653;48.994;9.212;2023-02-17T16:11:32;14.40;44.60
15105;DHT22;7653;48.994;9.212;2023-02-17T16:13:58;14.50;44.60
15105;DHT22;7653;48.994;9.212;2023-02-17T16:16:27;14.40;44.60
15105;DHT22;7653;48.994;9.212;2023-02-17T16:18:57;14.40;44.60
15105;DHT22;7653;48.994;9.212;2023-02-17T16:21:23;14.40;44.60
15105;DHT22;7653;48.994;9.212;2023-02-17T16:23:49;14.40;44.60
15105;DHT22;7653;48.994;9.212;2023-02-17T16:26:28;14.40;44.60
15105;DHT22;7653;48.994;9.212;2023-02-17T16:28:54;14.50;44.70
15105;DHT22;7653;48.994;9.212;2023-02-17T16:31:20;14.50;44.70
15105;DHT22;7653;48.994;9.212;2023-02-17T16:33:46;14.30;44.50
15105;DHT22;7653;48.994;9.212;2023-02-17T16:36:16;14.00;44.80
15105;DHT22;7653;48.994;9.212;2023-02-17T16:38:43;13.90;45.20
15105;DHT22;7653;48.994;9.212;2023-02-17T16:41:13;13.90;45.60
15105;DHT22;7653;48.994;9.212;2023-02-17T16:43:40;13.80;46.20
15105;DHT22;7653;48.994;9.212;2023-02-17T16:46:06;13.70;45.60
15105;DHT22;7653;48.994;9.212;2023-02-17T16:48:41;13.60;45.80
15105;DHT22;7653;48.994;9.212;2023-02-17T16:51:07;13.60;46.10
15105;DHT22;7653;48.994;9.212;2023-02-17T16:53:32;13.60;46.00
15105;DHT22;7653;48.994;9.212;2023-02-17T16:55:58;13.60;46.00
15105;DHT22;7653;48.994;9.212;2023-02-17T16:58:25;13.60;45.70
15105;DHT22;7653;48.994;9.212;2023-02-17T17:00:53;13.60;46.30
15105;DHT22;7653;48.994;9.212;2023-02-17T17:03:20;13.60;46.00
15105;DHT22;7653;48.994;9.212;2023-02-17T17:05:47;13.50;46.80
15105;DHT22;7653;48.994;9.212;2023-02-17T17:08:14;13.50;46.60
15105;DHT22;7653;48.994;9.212;2023-02-17T17:10:45;13.60;47.30
15105;DHT22;7653;48.994;9.212;2023-02-17T17:13:12;13.60;46.80
15105;DHT22;7653;48.994;9.212;2023-02-17T17:15:41;13.50;47.00
15105;DHT22;7653;48.994;9.212;2023-02-17T17:18:09;13.50;47.40
15105;DHT22;7653;48.994;9.212;2023-02-17T17:20:39;13.30;48.50
15105;DHT22;7653;48.994;9.212;2023-02-17T17:23:07;13.30;48.50
15105;DHT22;7653;48.994;9.212;2023-02-17T17:25:36;13.40;48.70
15105;DHT22;7653;48.994;9.212;2023-02-17T17:28:03;13.30;48.90
15105;DHT22;7653;48.994;9.212;2023-02-17T17:30:30;13.30;48.80
15105;DHT22;7653;48.994;9.212;2023-02-17T17:32:57;13.20;49.30
15105;DHT22;7653;48.994;9.212;2023-02-17T17:35:23;13.20;48.60
15105;DHT22;7653;48.994;9.212;2023-02-17T17:37:50;13.10;49.70
15105;DHT22;7653;48.994;9.212;2023-02-17T17:40:17;13.20;48.70
15105;DHT22;7653;48.994;9.212;2023-02-17T17:42:43;13.20;48.50
15105;DHT22;7653;48.994;9.212;2023-02-17T17:45:10;13.30;48.60
15105;DHT22;7653;48.994;9.212;2023-02-17T17:47:39;13.30;48.10
15105;DHT22;7653;48.994;9.212;2023-02-17T17:50:06;13.30;48.50
15105;DHT22;7653;48.994;9.212;2023-02-17T17:52:33;13.10;49.60
15105;DHT22;7653;48.994;9.212;2023-02-17T17:54:58;13.30;48.80
15105;DHT22;7653;48.994;9.212;2023-02-17T17:57:24;13.30;49.40
15105;DHT22;7653;48.994;9.212;2023-02-17T17:59:57;13.40;49.00
15105;DHT22;7653;48.994;9.212;2023-02-17T18:02:22;13.50;48.70
15105;DHT22;7653;48.994;9.212;2023-02-17T18:04:48;13.50;49.20
15105;DHT22;7653;48.994;9.212;2023-02-17T18:07:14;13.50;49.90
15105;DHT22;7653;48.994;9.212;2023-02-17T18:09:39;13.50;50.00
15105;DHT22;7653;48.994;9.212;2023-02-17T18:12:15;13.50;49.80
15105;DHT22;7653;48.994;9.212;2023-02-17T18:14:42;13.40;49.60